• Join FlightAware (Why Join?)
  • Login
  • US Flag 
07:34PM EDT


 

Airport Tracker/Info


-or-


 

Live Flight TrackerFlight Track Log ✈ EMD21 ✈ 16-Jul-2013 ✈ KTUL - KHOU

Flight Track Log - Related Links

Times and Time Zones

All times are in EDT time to prevent confusion due to time zone crossing. See the EMD21 flight status page for this flight to view local times or setup timezone preferences in your user account.

Time Position Orientation Groundspeed Altitude Reporting Facility
EDT Latitude Longitude Course Direction KTS MPH feet Rate Location/Type
04:57AM 36.1814 -95.8989 158° South 137 158 1,100  Level Kansas City Center
04:58AM 36.1442 -95.8803 158° South 137 158 2,700 1,320 Climbing Kansas City Center
04:59AM 36.1214 -95.8697 159° South 137 158 3,600 1,200 Climbing Kansas City Center
05:00AM 36.0856 -95.8525 159° South 137 158 4,800 1,260 Climbing Kansas City Center
05:01AM 36.0492 -95.8331 157° South 139 160 6,200 1,200 Climbing Kansas City Center
05:02AM 36.0106 -95.8172 162° South 142 163 7,300 1,140 Climbing Kansas City Center
05:03AM 35.9728 -95.8011 161° South 144 166 8,600 1,140 Climbing Kansas City Center
05:04AM 35.9367 -95.7825 157° South 142 163 9,700 1,080 Climbing Kansas City Center
05:05AM 35.8975 -95.7656 161° South 144 166 10,900 1,140 Climbing Kansas City Center
05:06AM 35.8578 -95.7694 185° South 144 166 12,100 1,080 Climbing Kansas City Center
05:07AM 35.8183 -95.7683 179° South 142 163 13,100 1,020 Climbing Kansas City Center
05:08AM 35.7803 -95.7617 172° South 140 161 14,200 900 Climbing Kansas City Center
05:09AM 35.7414 -95.7589 177° South 140 161 15,000 360 Climbing Kansas City Center
05:10AM 35.6936 -95.7542 175° South 161 185 15,000  Level Kansas City Center
05:11AM 35.6394 -95.7508 177° South 187 215 15,000  Level Kansas City Center
05:12AM 35.5719 -95.7447 176° South 199 229 15,000  Level Kansas City Center
05:13AM 35.5189 -95.7400 176° South 194 223 15,000  Level Kansas City Center
05:14AM 35.4656 -95.7358 176° South 193 222 15,000  Level Kansas City Center
05:15AM 35.4133 -95.7322 177° South 188 216 15,000 300 Level Kansas City Center
05:16AM 35.3628 -95.7278 176° South 185 213 15,600 540 Climbing Kansas City Center
05:17AM 35.3194 -95.7214 173° South 164 189 16,200 540 Climbing Kansas City Center
05:18AM 35.2550 -95.7178 177° South 165 190 17,000 300 Climbing Fort Worth Center
05:19AM 35.2050 -95.7164 179° South 170 196 17,000  Level Fort Worth Center
05:20AM 35.1486 -95.7125 177° South 185 213 17,000  Level Fort Worth Center
05:21AM 35.0964 -95.7058 174° South 196 226 17,000  Level Fort Worth Center
05:22AM 35.0422 -95.7019 177° South 196 226 17,000  Level Fort Worth Center
05:23AM 34.9900 -95.6978 176° South 196 226 17,000  Level Fort Worth Center
05:24AM 34.9336 -95.6914 175° South 201 231 17,000  Level Fort Worth Center
05:25AM 34.8792 -95.6900 179° South 201 231 17,000  Level Fort Worth Center
05:26AM 34.8228 -95.6861 177° South 201 231 17,000  Level Fort Worth Center
05:27AM 34.7708 -95.6844 178° South 196 226 17,000  Level Fort Worth Center
05:28AM 34.7206 -95.6756 172° South 196 226 17,000  Level Fort Worth Center
05:29AM 34.6661 -95.6689 174° South 196 226 17,000  Level Fort Worth Center
05:30AM 34.6119 -95.6675 179° South 201 231 17,000  Level Fort Worth Center
05:31AM 34.5575 -95.6636 177° South 195 224 17,000  Level Fort Worth Center
05:32AM 34.5053 -95.6597 176° South 195 224 17,000  Level Fort Worth Center
05:33AM 34.4511 -95.6556 176° South 195 224 17,000  Level Fort Worth Center
05:34AM 34.3925 -95.6519 177° South 195 224 17,000  Level Fort Worth Center
05:35AM 34.3444 -95.6453 173° South 195 224 17,000  Level Fort Worth Center
05:36AM 34.2881 -95.6414 177° South 195 224 17,000  Level Fort Worth Center
05:37AM 34.2317 -95.6375 177° South 195 224 17,000  Level Fort Worth Center
05:38AM 34.1775 -95.6336 177° South 200 230 17,000  Level Fort Worth Center
05:39AM 34.1231 -95.6297 177° South 200 230 17,000  Level Fort Worth Center
05:40AM 34.0772 -95.6231 173° South 195 224 17,000  Level Fort Worth Center
05:41AM 34.0208 -95.6167 175° South 195 224 17,000  Level Fort Worth Center
05:42AM 33.9644 -95.6131 177° South 200 230 17,000  Level Fort Worth Center
05:43AM 33.9122 -95.6089 176° South 200 230 17,000  Level Fort Worth Center
05:44AM 33.8578 -95.6050 177° South 200 230 17,000  Level Fort Worth Center
05:45AM 33.8033 -95.6011 177° South 200 230 17,000  Level Fort Worth Center
05:46AM 33.7492 -95.5947 174° South 200 230 17,000  Level Fort Worth Center
05:47AM 33.6969 -95.5908 176° South 200 230 17,000  Level Fort Worth Center
05:48AM 33.6425 -95.5897 179° South 195 224 17,000  Level Fort Worth Center
05:49AM 33.5903 -95.5833 174° South 202 232 17,000  Level Fort Worth Center
05:50AM 33.5339 -95.5794 177° South 202 232 17,000  Level Fort Worth Center
05:51AM 33.4775 -95.5756 177° South 197 227 17,000  Level Fort Worth Center
05:52AM 33.4189 -95.5694 175° South 197 227 17,000  Level Fort Worth Center
05:53AM 33.3667 -95.5656 176° South 197 227 17,000  Level Fort Worth Center
05:54AM 33.3144 -95.5614 176° South 197 227 17,000  Level Fort Worth Center
05:55AM 33.2600 -95.5553 175° South 197 227 17,000  Level Fort Worth Center
05:56AM 33.2017 -95.5539 179° South 197 227 17,000  Level Fort Worth Center
05:57AM 33.1514 -95.5475 174° South 197 227 17,000  Level Fort Worth Center
05:58AM 33.0950 -95.5439 177° South 197 227 17,000  Level Fort Worth Center
05:59AM 33.0428 -95.5400 176° South 197 227 17,000 -60 Level Fort Worth Center
06:00AM 32.9822 -95.5361 177° South 197 227 16,900 -60 Descending Fort Worth Center
06:01AM 32.9258 -95.5300 175° South 197 227 16,900  Level Fort Worth Center
06:02AM 32.8756 -95.5286 179° South 197 227 16,900  Level Fort Worth Center
06:03AM 32.8172 -95.5225 175° South 202 232 16,900  Level Fort Worth Center
06:04AM 32.7628 -95.5211 179° South 197 227 16,900  Level Fort Worth Center
06:05AM 32.7083 -95.5147 174° South 197 227 16,900  Level Fort Worth Center
06:06AM 32.6561 -95.5086 174° South 197 227 16,900  Level Fort Worth Center
06:07AM 32.6019 -95.5047 177° South 197 227 16,900  Level Fort Worth Center
06:08AM 32.5456 -95.5033 179° South 197 227 16,900  Level Fort Worth Center
06:09AM 32.4911 -95.4972 175° South 203 234 16,900  Level Fort Worth Center
06:10AM 32.4347 -95.4936 177° South 198 228 16,900  Level Fort Worth Center
06:11AM 32.3803 -95.4872 174° South 198 228 16,900  Level Fort Worth Center
06:12AM 32.3239 -95.4836 177° South 203 234 16,900  Level Fort Worth Center
06:13AM 32.2653 -95.4822 179° South 203 234 16,900  Level Fort Worth Center
06:14AM 32.2111 -95.4786 177° South 203 234 16,900  Level Fort Worth Center
06:15AM 32.1631 -95.4747 176° South 200 230 16,900  Level Fort Worth Center
06:16AM 32.1044 -95.4708 177° South 200 230 16,900  Level Fort Worth Center
06:17AM 32.0500 -95.4672 177° South 200 230 16,900  Level Fort Worth Center
06:18AM 31.9917 -95.4611 175° South 200 230 16,900  Level Fort Worth Center
06:20AM 31.9044 -95.4508 174° South 206 237 16,900  Level Houston Center
06:21AM 31.8469 -95.4467 176° South 208 239 16,900  Level Houston Center
06:22AM 31.7914 -95.4428 177° South 202 232 16,900  Level Houston Center
06:23AM 31.7344 -95.4367 175° South 203 234 16,900  Level Houston Center
06:24AM 31.6792 -95.4322 176° South 201 231 17,000  Climbing Houston Center
06:25AM 31.6236 -95.4283 177° South 201 231 17,000  Level Houston Center
06:26AM 31.5667 -95.4250 177° South 204 235 17,000  Level Houston Center
06:27AM 31.5108 -95.4203 176° South 202 232 17,000  Level Houston Center
06:28AM 31.4528 -95.4167 177° South 208 239 17,000  Level Houston Center
06:29AM 31.3956 -95.4122 176° South 205 236 17,000  Level Houston Center
06:30AM 31.3261 -95.4064 176° South 207 238 17,000  Level Houston Center
06:31AM 31.2689 -95.4017 176° South 206 237 17,000  Level Houston Center
06:32AM 31.2114 -95.3964 176° South 207 238 17,000  Level Houston Center
06:33AM 31.1542 -95.3936 178° South 207 238 17,000  Level Houston Center
06:34AM 31.0964 -95.3903 177° South 207 238 17,000  Level Houston Center
06:35AM 31.0572 -95.3853 174° South 211 243 17,000  Level Houston Center
06:36AM 30.9800 -95.3794 176° South 210 242 17,000  Level Houston Center
06:37AM 30.9222 -95.3772 178° South 208 239 17,000  Level Houston Center
06:38AM 30.8642 -95.3728 176° South 209 241 17,000  Level Houston Center
06:39AM 30.8053 -95.3681 176° South 211 243 17,000  Level Houston Center
06:40AM 30.7469 -95.3633 176° South 210 242 17,000  Level Houston Center
06:41AM 30.6892 -95.3581 176° South 209 241 17,000  Level Houston Center
06:42AM 30.6281 -95.3522 175° South 210 242 17,000  Level Houston Center
06:43AM 30.5692 -95.3497 178° South 209 241 17,000  Level Houston Center
06:44AM 30.5119 -95.3447 176° South 209 241 17,000 -540 Level Houston Center
06:45AM 30.4506 -95.3400 176° South 226 260 16,000 -1,080 Descending Houston Center
06:46AM 30.3831 -95.3361 177° South 240 276 14,900 -1,020 Descending Houston Center
06:47AM 30.3133 -95.3300 176° South 243 280 14,000 -1,080 Descending Houston Center
06:48AM 30.2478 -95.3258 177° South 233 268 12,800 -1,140 Descending Houston Center
06:49AM 30.1875 -95.3222 177° South 237 273 11,700 -1,320 Descending Houston Center
06:50AM 30.1264 -95.3525 203° Southwest 246 283 10,300 -1,200 Descending Houston Center
06:51AM 30.0622 -95.3869 205° Southwest 225 259 9,300 -960 Descending Houston Center
06:52AM 29.9997 -95.3919 184° South 225 259 8,300 -1,140 Descending Houston Center
06:53AM 29.9458 -95.3872 176° South 221 254 7,100 -1,380 Descending Houston Center
06:54AM 29.8867 -95.3792 173° South 216 249 5,600 -1,560 Descending Houston Center
06:55AM 29.8261 -95.3528 159° South 198 228 4,000 -1,440 Descending Houston Center
06:56AM 29.7853 -95.3261 150° Southeast 200 230 2,800 -900 Descending Houston Center
06:57AM 29.7394 -95.2964 151° Southeast 197 227 2,200 -780 Descending Houston Center
06:58AM 29.7039 -95.2867 167° South 157 181 1,300 -900 Descending Houston Center
06:59AM 29.6672 -95.2853 178° South 141 162 400 -600 Descending Houston Center
07:00AM 29.6278 -95.2847 179° South 135 155 100 -300 Descending Houston Center